Time;durP1;ratioP1;P1;durP2;ratioP2;P2;SDS_P1;SDS_P2;PMS_P1;PMS_P2;Temp;Humidity;BMP_temperature;BMP_pressure;BME280_temperature;BME280_humidity;BME280_pressure;Samples;Min_cycle;Max_cycle;Signal;HPM_P1;HPM_P2
2022/12/04 00:02:22;;;;;;;;;101.67;78.00;;;;;0.86;100.00;100363.22;6279524;20;3712779;-59
2022/12/04 00:04:51;;;;;;;;;95.33;74.33;;;;;0.93;100.00;100358.75;6283172;20;3670531;-59
2022/12/04 00:07:21;;;;;;;;;94.00;71.33;;;;;0.79;100.00;100357.13;6281759;20;3653453;-59
2022/12/04 00:09:51;;;;;;;;;98.33;72.33;;;;;1.02;100.00;100369.22;6278300;20;3675273;-59
2022/12/04 00:12:20;;;;;;;;;97.67;68.33;;;;;0.83;100.00;100361.47;6281066;20;3665940;-58
2022/12/04 00:14:50;;;;;;;;;93.33;71.00;;;;;0.83;100.00;100363.25;6310800;20;3660821;-58
2022/12/04 00:17:40;;;;;;;;;95.67;76.00;;;;;1.00;100.00;100365.69;6310373;20;3657572;-58
2022/12/04 00:20:10;;;;;;;;;90.67;69.33;;;;;1.19;100.00;100369.03;6309237;20;3659675;-58
2022/12/04 00:22:39;;;;;;;;;88.00;67.33;;;;;1.05;100.00;100362.13;6308875;20;3632724;-59
2022/12/04 00:25:09;;;;;;;;;89.33;69.00;;;;;1.04;100.00;100360.38;6302660;20;3646293;-58
2022/12/04 00:27:39;;;;;;;;;97.67;77.00;;;;;1.19;100.00;100366.38;6294761;20;3657568;-58
2022/12/04 00:30:09;;;;;;;;;97.67;72.00;;;;;1.06;100.00;100377.09;6303816;20;3669054;-59
2022/12/04 00:32:39;;;;;;;;;98.67;68.33;;;;;0.64;100.00;100378.44;6312939;20;3646141;-58
2022/12/04 00:35:08;;;;;;;;;98.67;78.00;;;;;0.62;100.00;100377.56;6312528;20;3673208;-59
2022/12/04 00:37:38;;;;;;;;;97.33;69.00;;;;;0.65;100.00;100375.75;6276679;20;3675396;-59
2022/12/04 00:40:09;;;;;;;;;97.67;68.67;;;;;0.76;100.00;100374.78;6274600;20;3666055;-58
2022/12/04 00:42:38;;;;;;;;;89.67;69.00;;;;;0.78;100.00;100373.00;6282341;20;3641961;-56
2022/12/04 00:45:08;;;;;;;;;96.33;72.33;;;;;0.62;100.00;100370.50;6312814;20;3671142;-59
2022/12/04 00:47:38;;;;;;;;;91.67;71.00;;;;;0.81;100.00;100376.47;6284705;20;3659654;-58
2022/12/04 00:50:09;;;;;;;;;93.67;74.33;;;;;0.94;100.00;100379.88;6316000;20;3658628;-58
2022/12/04 00:52:38;;;;;;;;;97.00;67.67;;;;;0.94;100.00;100376.34;6311198;20;3661771;-58
2022/12/04 00:55:09;;;;;;;;;90.00;69.00;;;;;0.87;100.00;100375.56;6281103;20;3640992;-58
2022/12/04 00:57:38;;;;;;;;;93.00;72.33;;;;;0.86;100.00;100379.06;6313772;20;3648219;-58
2022/12/04 01:00:09;;;;;;;;;92.33;69.00;;;;;0.79;100.00;100380.03;6309835;20;3651524;-57
2022/12/04 01:02:38;;;;;;;;;89.00;67.00;;;;;0.86;100.00;100371.16;6317401;20;2896189;-58
2022/12/04 01:05:08;;;;;;;;;93.67;68.00;;;;;1.02;100.00;100375.38;6309704;20;3652903;-56
2022/12/04 01:07:38;;;;;;;;;93.33;68.33;;;;;0.93;100.00;100377.25;6312984;20;3665982;-58
2022/12/04 01:10:12;;;;;;;;;86.67;67.67;;;;;0.93;100.00;100380.78;6313973;20;3627385;-59
2022/12/04 01:12:41;;;;;;;;;86.67;67.00;;;;;1.05;100.00;100380.66;6313924;20;3629467;-58
2022/12/04 01:15:11;;;;;;;;;89.00;66.33;;;;;1.08;100.00;100372.66;6310870;20;3655861;-58
2022/12/04 01:17:40;;;;;;;;;92.67;69.67;;;;;1.23;100.00;100373.38;6314037;20;3646114;-58
2022/12/04 01:20:13;;;;;;;;;90.33;66.67;;;;;1.00;100.00;100377.19;6312593;20;3643029;-58
2022/12/04 01:22:43;;;;;;;;;94.00;66.00;;;;;0.86;100.00;100374.66;6316005;20;3648294;-58
2022/12/04 01:25:12;;;;;;;;;92.33;72.00;;;;;1.08;100.00;100385.88;6315218;20;3648294;-58
2022/12/04 01:27:42;;;;;;;;;97.33;71.33;;;;;1.10;100.00;100377.91;6309795;20;3668117;-58
2022/12/04 01:30:12;;;;;;;;;93.00;74.50;;;;;1.18;100.00;100365.47;6277226;20;3528400;-58
2022/12/04 01:32:41;;;;;;;;;95.67;77.33;;;;;1.44;100.00;100367.78;6312191;20;3675458;-58
2022/12/04 01:35:11;;;;;;;;;94.67;73.33;;;;;1.37;100.00;100349.38;6281584;20;3681523;-59
2022/12/04 01:37:41;;;;;;;;;97.67;76.00;;;;;1.58;100.00;100356.13;6279908;20;3678486;-58
2022/12/04 01:40:15;;;;;;;;;95.33;75.00;;;;;1.56;100.00;100357.97;6280544;20;3657583;-59
2022/12/04 01:42:45;;;;;;;;;93.33;71.33;;;;;1.60;100.00;100359.66;6282957;20;3660703;-58
2022/12/04 01:45:41;;;;;;;;;97.67;72.33;;;;;1.66;100.00;100362.19;6312218;20;3664812;-58
2022/12/04 01:48:50;;;;;;;;;92.33;73.33;;;;;1.49;100.00;100362.44;6281760;20;3657587;-58
2022/12/04 01:51:28;;;;;;;;;87.33;66.67;;;;;1.61;100.00;100361.41;6312337;20;3643035;-58
2022/12/04 01:54:10;;;;;;;;;91.67;66.33;;;;;1.55;100.00;100359.69;6310815;20;3649232;-58
2022/12/04 01:56:59;;;;;;;;;91.33;70.00;;;;;1.75;100.00;100362.09;6312629;20;3649782;-59
2022/12/04 01:59:36;;;;;;;;;84.50;66.50;;;;;1.81;100.00;100367.28;6311372;20;2866965;-58
2022/12/04 02:02:16;;;;;;;;;97.00;76.00;;;;;2.03;100.00;100372.22;6281952;20;3670128;-59
2022/12/04 02:04:46;;;;;;;;;81.33;59.33;;;;;2.16;100.00;100371.16;6283247;20;2891165;-59
2022/12/04 02:07:16;;;;;;;;;90.33;67.00;;;;;2.26;100.00;100370.09;6311044;20;3647126;-59
2022/12/04 02:09:52;;;;;;;;;92.33;68.67;;;;;2.25;100.00;100365.72;6314300;20;3678391;-59
2022/12/04 02:12:42;;;;;;;;;82.00;64.00;;;;;2.02;100.00;100363.41;6277532;20;2887813;-59
2022/12/04 02:15:34;;;;;;;;;82.67;63.33;;;;;1.95;100.00;100365.31;6310526;20;3621239;-59
2022/12/04 02:18:29;;;;;;;;;87.33;65.33;;;;;1.81;100.00;100364.63;6309527;20;3647170;-59
2022/12/04 02:21:35;;;;;;;;;81.67;62.33;;;;;1.85;100.00;100350.47;6312384;20;2879633;-59
2022/12/04 02:25:07;;;;;;;;;84.33;61.67;;;;;1.77;100.00;100355.00;6308044;20;3654437;-59
2022/12/04 02:27:39;;;;;;;;;86.67;66.00;;;;;1.66;100.00;100351.59;6308452;20;3643138;-59
2022/12/04 02:30:14;;;;;;;;;85.67;65.67;;;;;1.67;100.00;100354.25;6311893;20;3634669;-59
2022/12/04 02:33:29;;;;;;;;;87.00;64.67;;;;;1.66;100.00;100352.50;6314140;20;3656500;-58
2022/12/04 02:36:24;;;;;;;;;92.00;68.00;;;;;1.72;100.00;100346.25;6312242;20;3660663;-60
2022/12/04 02:39:11;;;;;;;;;88.67;65.67;;;;;2.00;100.00;100340.50;6312778;20;3651420;-59
2022/12/04 02:41:58;;;;;;;;;89.67;66.67;;;;;2.01;100.00;100343.16;6314226;20;3646122;-59
2022/12/04 02:44:44;;;;;;;;;86.00;66.33;;;;;2.13;100.00;100348.25;6312668;20;3632531;-59
2022/12/04 02:47:20;;;;;;;;;95.00;75.33;;;;;2.37;100.00;100346.06;6312272;20;3674197;-59
2022/12/04 02:50:00;;;;;;;;;93.33;71.67;;;;;2.29;100.00;100348.88;6278021;20;3672138;-60
2022/12/04 02:52:47;;;;;;;;;94.67;70.67;;;;;2.51;100.00;100348.50;6277047;20;3679449;-59
2022/12/04 02:55:31;;;;;;;;;93.67;74.00;;;;;2.27;100.00;100345.38;6279185;20;3671121;-59
2022/12/04 02:58:14;;;;;;;;;89.67;69.33;;;;;2.37;100.00;100352.25;6308172;20;3649349;-58
2022/12/04 03:00:46;;;;;;;;;95.00;69.00;;;;;2.37;100.00;100349.59;6312030;20;3661784;-60
2022/12/04 03:03:23;;;;;;;;;95.00;76.33;;;;;2.45;100.00;100348.56;6277364;20;3676429;-60
2022/12/04 03:06:09;;;;;;;;;92.33;72.67;;;;;2.13;100.00;100358.84;6275131;20;3663832;-59
2022/12/04 03:08:51;;;;;;;;;88.00;67.67;;;;;2.30;100.00;100355.91;6309490;20;3656491;-59
2022/12/04 03:11:20;;;;;;;;;93.67;76.00;;;;;2.53;100.00;100358.16;6278229;20;3656576;-60
2022/12/04 03:14:13;;;;;;;;;98.00;75.00;;;;;2.47;100.00;100349.44;6276232;20;3693078;-59
2022/12/04 03:16:43;;;;;;;;;90.33;74.00;;;;;2.39;100.00;100358.38;6277938;20;3659625;-58
2022/12/04 03:19:24;;;;;;;;;81.67;62.33;;;;;2.56;100.00;100352.81;6276831;20;3638898;-58
2022/12/04 03:22:03;;;;;;;;;97.33;76.67;;;;;2.44;100.00;100347.72;6309434;20;3684766;-58
2022/12/04 03:24:40;;;;;;;;;98.33;75.33;;;;;2.55;100.00;100358.13;6276304;20;3672213;-58
2022/12/04 03:27:35;;;;;;;;;92.00;75.33;;;;;2.54;100.00;100361.69;6278667;20;3688922;-58
2022/12/04 03:30:13;;;;;;;;;95.00;80.33;;;;;2.55;100.00;100363.41;6277747;20;3665025;-58
2022/12/04 03:33:04;;;;;;;;;98.00;82.33;;;;;2.55;100.00;100355.47;6277574;20;3658005;-58
2022/12/04 03:36:44;;;;;;;;;98.33;82.00;;;;;2.54;100.00;100361.69;6312025;20;3674359;-58
2022/12/04 03:39:56;;;;;;;;;96.67;86.33;;;;;2.75;100.00;100369.25;6278499;20;3659743;-58
2022/12/04 03:42:48;;;;;;;;;92.33;69.00;;;;;2.54;100.00;100359.91;6276163;20;3653391;-59
2022/12/04 03:45:40;;;;;;;;;91.00;73.00;;;;;2.64;100.00;100365.91;6309007;20;3656528;-57
2022/12/04 03:48:48;;;;;;;;;98.33;80.33;;;;;2.60;100.00;100367.72;6275776;20;3692034;-58
2022/12/04 03:52:02;;;;;;;;;91.33;73.33;;;;;2.80;100.00;100361.22;6280599;20;3668060;-57
2022/12/04 03:55:00;;;;;;;;;97.67;76.67;;;;;2.37;100.00;100362.88;6274108;20;3675333;-58
2022/12/04 03:57:38;;;;;;;;;106.25;84.75;;;;;2.34;100.00;100352.31;6280529;20;3701311;-58
2022/12/04 04:00:19;;;;;;;;;97.00;73.67;;;;;2.48;100.00;100348.56;6308897;20;3675376;-58
2022/12/04 04:03:06;;;;;;;;;91.33;74.33;;;;;2.56;100.00;100336.03;6276510;20;3670581;-58
2022/12/04 04:05:40;;;;;;;;;99.67;85.33;;;;;2.52;100.00;100339.63;6277527;20;3678392;-59
2022/12/04 04:08:26;;;;;;;;;103.00;89.00;;;;;2.45;100.00;100328.28;6277207;20;3683761;-59
2022/12/04 04:11:28;;;;;;;;;95.67;73.33;;;;;2.54;100.00;100332.53;6277977;20;3675333;-59
2022/12/04 04:26:00;;;;;;;;;103.00;80.67;;;;;2.58;100.00;100342.16;6282841;20;3696492;-57
2022/12/04 04:28:36;;;;;;;;;102.33;89.00;;;;;2.54;100.00;100348.44;6281955;20;3670100;-58
2022/12/04 04:32:06;;;;;;;;;99.33;84.67;;;;;2.51;100.00;100344.06;6283418;20;3664860;-58
2022/12/04 04:35:05;;;;;;;;;111.00;90.33;;;;;2.59;100.00;100349.22;6284909;20;3681509;-58
2022/12/04 04:37:47;;;;;;;;;109.00;84.00;;;;;2.52;100.00;100350.22;6284332;20;4449189;-58
2022/12/04 04:40:43;;;;;;;;;95.67;74.33;;;;;2.63;100.00;100348.25;6315609;20;3671087;-58
2022/12/04 04:43:41;;;;;;;;;112.33;95.67;;;;;2.61;100.00;100352.72;6280395;20;3689865;-58
2022/12/04 04:46:27;;;;;;;;;136.75;109.00;;;;;2.40;100.00;100354.84;6282215;20;4492987;-58
2022/12/04 04:49:18;;;;;;;;;114.67;91.00;;;;;2.60;100.00;100350.97;6279771;20;3689983;-58
2022/12/04 04:51:48;;;;;;;;;117.67;91.67;;;;;2.58;100.00;100350.09;6281581;20;3695139;-58
2022/12/04 04:54:19;;;;;;;;;112.00;89.67;;;;;2.50;100.00;100346.72;6280307;20;3681632;-58
2022/12/04 04:56:49;;;;;;;;;110.50;92.50;;;;;2.39;100.00;100345.13;6285058;20;4432612;-58
2022/12/04 04:59:18;;;;;;;;;110.00;90.00;;;;;2.69;100.00;100347.28;6308764;20;3675247;-59
2022/12/04 05:01:48;;;;;;;;;118.67;95.67;;;;;2.70;100.00;100349.88;6282437;20;3694116;-58
2022/12/04 05:04:19;;;;;;;;;121.00;97.75;;;;;2.78;100.00;100355.06;6279406;20;3711726;-59
2022/12/04 05:06:48;;;;;;;;;98.67;82.00;;;;;2.74;100.00;100356.00;6279405;20;3684752;-58
2022/12/04 05:09:18;;;;;;;;;111.33;91.00;;;;;2.69;100.00;100358.75;6280442;20;3688790;-59
2022/12/04 05:11:48;;;;;;;;;99.00;77.00;;;;;2.68;100.00;100356.13;6283388;20;3661829;-58
2022/12/04 05:14:18;;;;;;;;;145.50;124.25;;;;;2.57;100.00;100367.78;6283964;20;4489803;-59
2022/12/04 05:16:49;;;;;;;;;221.50;189.75;;;;;2.59;100.00;100371.28;6314206;20;4507588;-59
2022/12/04 05:22:05;;;;;;;;;141.50;113.00;;;;;2.52;100.00;100360.84;6273050;20;1958691;-58
2022/12/04 05:24:35;;;;;;;;;139.50;112.50;;;;;2.80;100.00;100351.47;6280785;20;4486705;-59
2022/12/04 05:27:05;;;;;;;;;290.00;243.75;;;;;2.63;100.00;100358.84;6310939;20;4507599;-58
2022/12/04 05:29:36;;;;;;;;;181.50;142.50;;;;;2.70;100.00;100354.31;6276164;20;4473283;-58
2022/12/04 05:32:04;;;;;;;;;134.50;110.00;;;;;2.74;100.00;100354.25;6280028;20;1951541;-59
2022/12/04 05:34:35;;;;;;;;;177.75;147.75;;;;;2.63;100.00;100358.84;6279482;20;3704516;-59
2022/12/04 05:37:02;;;;;;;;;160.50;126.50;;;;;2.85;100.00;100356.69;6277414;20;1954492;-58
2022/12/04 05:39:30;;;;;;;;;168.50;133.00;;;;;2.50;100.00;100358.22;6276425;20;1967030;-59
2022/12/04 05:42:01;;;;;;;;;132.00;107.75;;;;;2.79;100.00;100356.78;6282523;20;4487770;-59
2022/12/04 05:44:32;;;;;;;;;161.80;130.60;;;;;2.86;100.00;100361.94;6281463;20;4508721;-58
2022/12/04 05:47:03;;;;;;;;;121.00;103.25;;;;;2.65;100.00;100362.34;6313513;20;3720518;-59
2022/12/04 05:49:34;;;;;;;;;122.50;96.50;;;;;2.86;100.00;100364.59;6279857;20;2802475;-58
2022/12/04 05:52:04;;;;;;;;;126.50;109.50;;;;;2.62;100.00;100357.13;6309313;20;1957583;-58
2022/12/04 05:54:34;;;;;;;;;120.00;94.67;;;;;2.63;100.00;100366.81;6281320;20;3693167;-59
2022/12/04 05:57:05;;;;;;;;;189.75;164.75;;;;;2.86;100.00;100364.59;6283258;20;4484658;-59
2022/12/04 05:59:35;;;;;;;;;105.33;88.67;;;;;2.85;100.00;100354.91;6281697;20;3680460;-59
2022/12/04 06:02:05;;;;;;;;;102.33;87.67;;;;;2.89;100.00;100352.19;6277408;20;3684772;-60
2022/12/04 06:04:37;;;;;;;;;146.50;127.50;;;;;2.93;100.00;100356.53;6279799;20;3602355;-58
2022/12/04 06:07:08;;;;;;;;;94.33;70.33;;;;;3.01;100.00;100366.09;6278385;20;3679433;-59
2022/12/04 06:09:38;;;;;;;;;110.33;89.33;;;;;2.84;100.00;100377.03;6278725;20;3683598;-59
2022/12/04 06:12:07;;;;;;;;;115.33;91.67;;;;;2.56;100.00;100362.53;6276387;20;3690868;-59
2022/12/04 06:14:38;;;;;;;;;149.75;126.00;;;;;2.91;100.00;100376.91;6282445;20;3727718;-58
2022/12/04 06:17:09;;;;;;;;;136.50;108.75;;;;;2.68;100.00;100362.28;6309756;20;4485842;-58
2022/12/04 06:19:39;;;;;;;;;138.00;116.50;;;;;2.89;100.00;100368.09;6312479;20;4473139;-59
2022/12/04 06:22:09;;;;;;;;;123.67;105.33;;;;;2.70;100.00;100373.75;6280659;20;3718100;-59
2022/12/04 06:24:39;;;;;;;;;100.33;84.67;;;;;2.62;100.00;100362.41;6281446;20;3696192;-59
2022/12/04 06:27:09;;;;;;;;;135.50;108.50;;;;;2.78;100.00;100369.19;6283260;20;4478339;-59
2022/12/04 06:29:56;;;;;;;;;111.00;93.00;;;;;2.75;100.00;100361.28;6278005;20;3683839;-58
2022/12/04 06:32:26;;;;;;;;;94.33;86.33;;;;;2.67;100.00;100365.00;6282873;20;3648286;-58
2022/12/04 06:34:55;;;;;;;;;160.00;124.00;;;;;2.76;100.00;100368.31;6308410;20;1961904;-58
2022/12/04 06:37:26;;;;;;;;;162.50;130.75;;;;;2.88;100.00;100371.66;6283552;20;3709624;-59
2022/12/04 06:39:57;;;;;;;;;176.88;136.50;;;;;2.65;100.00;100372.97;6293279;20;3696101;-59
2022/12/04 06:42:27;;;;;;;;;100.33;85.67;;;;;2.62;100.00;100363.28;6278757;20;3697380;-59
2022/12/04 06:44:55;;;;;;;;;208.50;145.50;;;;;2.73;100.00;100368.38;6277986;20;1959713;-59
2022/12/04 06:47:25;;;;;;;;;272.50;206.75;;;;;2.89;100.00;100371.63;6282631;20;4463852;-59
2022/12/04 06:49:54;;;;;;;;;100.33;86.67;;;;;2.93;100.00;100364.50;6310610;20;3684619;-59
2022/12/04 06:52:25;;;;;;;;;136.75;122.25;;;;;2.91;100.00;100366.31;6280774;20;4488766;-58
2022/12/04 06:54:55;;;;;;;;;108.00;98.33;;;;;2.73;100.00;100357.78;6277670;20;3675330;-58
2022/12/04 06:57:25;;;;;;;;;107.33;90.00;;;;;2.80;100.00;100355.91;6277218;20;3680510;-58
2022/12/04 06:59:54;;;;;;;;;93.67;69.33;;;;;2.76;100.00;100349.75;6274610;20;3662917;-59
2022/12/04 07:02:24;;;;;;;;;99.00;78.00;;;;;2.62;100.00;100357.13;6313237;20;3678511;-59
2022/12/04 07:04:55;;;;;;;;;101.00;86.33;;;;;2.73;100.00;100355.13;6279512;20;3691928;-59
2022/12/04 07:07:25;;;;;;;;;100.33;89.00;;;;;2.64;100.00;100365.91;6279471;20;3671301;-58
2022/12/04 07:09:55;;;;;;;;;99.00;81.00;;;;;2.67;100.00;100362.34;6280178;20;4448150;-59
2022/12/04 07:12:25;;;;;;;;;104.00;88.33;;;;;2.91;100.00;100364.53;6303348;20;3686906;-59
2022/12/04 07:14:55;;;;;;;;;97.33;78.00;;;;;2.71;100.00;100367.53;6280251;20;3682016;-59
2022/12/04 07:17:24;;;;;;;;;97.33;81.33;;;;;2.78;100.00;100363.88;6279865;20;3668185;-59
2022/12/04 07:19:54;;;;;;;;;91.33;66.33;;;;;2.89;100.00;100366.31;6313846;20;3657608;-59
2022/12/04 07:22:24;;;;;;;;;102.33;80.00;;;;;2.90;100.00;100368.09;6280103;20;3703416;-60
2022/12/04 07:24:53;;;;;;;;;124.50;107.25;;;;;2.89;100.00;100366.31;6281035;20;4463918;-58
2022/12/04 07:27:24;;;;;;;;;124.50;101.25;;;;;3.09;100.00;100357.97;6277200;20;4485846;-59
2022/12/04 07:29:53;;;;;;;;;95.50;84.00;;;;;3.08;100.00;100364.16;6282496;20;4410706;-59
2022/12/04 07:32:23;;;;;;;;;97.67;88.33;;;;;3.08;100.00;100359.78;6311356;20;3666059;-59
2022/12/04 07:34:53;;;;;;;;;141.67;125.33;;;;;3.06;100.00;100366.00;6282527;20;3711766;-58
2022/12/04 07:37:23;;;;;;;;;95.67;81.00;;;;;2.99;100.00;100367.03;6278326;20;3672174;-59
2022/12/04 07:39:52;;;;;;;;;97.33;82.00;;;;;3.19;100.00;100364.84;6277454;20;3670207;-59
2022/12/04 07:42:23;;;;;;;;;94.00;73.00;;;;;3.23;100.00;100373.63;6277405;20;3684692;-58
2022/12/04 07:44:52;;;;;;;;;103.67;85.00;;;;;3.16;100.00;100370.22;6279285;20;3682605;-58
2022/12/04 07:47:22;;;;;;;;;98.67;83.33;;;;;3.45;100.00;100371.38;6280659;20;3677343;-59
2022/12/04 07:49:52;;;;;;;;;99.33;83.33;;;;;3.30;100.00;100373.47;6278183;20;3675275;-59
2022/12/04 07:52:22;;;;;;;;;101.33;80.67;;;;;3.52;100.00;100378.31;6274258;20;3699247;-59
2022/12/04 07:54:51;;;;;;;;;97.00;74.00;;;;;3.22;100.00;100367.44;6280230;20;3677400;-59
2022/12/04 07:57:21;;;;;;;;;93.00;75.33;;;;;3.27;100.00;100378.84;6276152;20;3676412;-59
2022/12/04 07:59:51;;;;;;;;;95.00;74.00;;;;;3.38;100.00;100373.31;6278625;20;3677430;-59
2022/12/04 08:02:20;;;;;;;;;96.00;75.67;;;;;3.10;100.00;100372.97;6280182;20;3663919;-58
2022/12/04 08:04:50;;;;;;;;;106.33;82.33;;;;;3.29;100.00;100371.72;6279042;20;3681708;-59
2022/12/04 08:07:20;;;;;;;;;94.00;76.67;;;;;3.26;100.00;100377.06;6280759;20;3671083;-59
2022/12/04 08:09:49;;;;;;;;;89.67;73.33;;;;;3.37;100.00;100378.63;6274394;20;3653370;-59
2022/12/04 08:12:19;;;;;;;;;95.67;73.33;;;;;3.28;100.00;100377.91;6307831;20;3688910;-59
2022/12/04 08:14:49;;;;;;;;;126.00;99.50;;;;;3.12;100.00;100379.13;6274886;20;1957778;-58
2022/12/04 08:17:18;;;;;;;;;116.33;87.33;;;;;2.99;100.00;100388.25;6279679;20;3695091;-59
2022/12/04 08:19:48;;;;;;;;;324.00;239.25;;;;;3.28;100.00;100382.34;6278721;20;4514800;-59
2022/12/04 08:22:20;;;;;;;;;518.20;373.20;;;;;3.47;100.00;100383.72;6275361;20;4541904;-59
2022/12/04 08:24:53;;;;;;;;;271.33;212.33;;;;;3.39;100.00;100376.81;6304163;20;3688870;-59
2022/12/04 08:27:24;;;;;;;;;255.50;196.50;;;;;3.52;100.00;100378.31;6277511;20;3709735;-59
2022/12/04 08:29:54;;;;;;;;;260.50;184.50;;;;;3.18;100.00;100380.78;6276586;20;4479482;-58
2022/12/04 08:32:22;;;;;;;;;152.50;138.00;;;;;3.26;100.00;100382.38;6303954;20;1960902;-59
2022/12/04 08:34:51;;;;;;;;;93.33;84.33;;;;;3.09;100.00;100379.22;6273072;20;3656519;-59
2022/12/04 08:37:23;;;;;;;;;174.50;142.50;;;;;3.36;100.00;100382.19;6303890;20;1954471;-59
2022/12/04 08:39:52;;;;;;;;;96.00;69.33;;;;;3.24;100.00;100386.00;6276274;20;3673326;-58
2022/12/04 08:42:22;;;;;;;;;115.67;97.33;;;;;3.44;100.00;100370.50;6308080;20;3696114;-59
2022/12/04 08:44:53;;;;;;;;;118.50;95.50;;;;;3.71;100.00;100370.81;6279424;20;3708771;-59
2022/12/04 08:47:22;;;;;;;;;96.00;86.33;;;;;3.63;100.00;100376.28;6308892;20;3653531;-58
2022/12/04 08:49:52;;;;;;;;;114.00;98.67;;;;;3.68;100.00;100384.16;6310046;20;3692038;-59
2022/12/04 08:52:20;;;;;;;;;106.00;91.00;;;;;3.87;100.00;100373.97;6273886;20;1950495;-59
2022/12/04 08:54:50;;;;;;;;;102.33;88.67;;;;;3.67;100.00;100356.72;6277161;20;3680610;-58
2022/12/04 08:57:21;;;;;;;;;93.67;76.67;;;;;3.84;100.00;100371.41;6279312;20;3677330;-58
2022/12/04 08:59:50;;;;;;;;;90.33;68.67;;;;;3.96;100.00;100368.47;6278877;20;3668024;-59
2022/12/04 09:02:20;;;;;;;;;92.00;73.00;;;;;3.99;100.00;100356.91;6277211;20;3686758;-58
2022/12/04 09:04:50;;;;;;;;;90.67;71.00;;;;;4.02;100.00;100352.38;6284208;20;3683600;-59
2022/12/04 09:07:19;;;;;;;;;89.00;72.00;;;;;4.25;100.00;100353.63;6283586;20;3666000;-59
2022/12/04 09:09:49;;;;;;;;;95.00;75.67;;;;;4.29;100.00;100349.94;6283367;20;3680689;-58
2022/12/04 09:12:19;;;;;;;;;90.67;72.33;;;;;3.92;100.00;100341.13;6281291;20;3677370;-58
2022/12/04 09:14:48;;;;;;;;;93.00;75.67;;;;;4.34;100.00;100343.59;6277344;20;3671158;-60
2022/12/04 09:17:18;;;;;;;;;88.00;64.33;;;;;4.41;100.00;100347.00;6281412;20;3651405;-58
2022/12/04 09:19:48;;;;;;;;;88.33;69.00;;;;;4.58;100.00;100352.75;6312759;20;3670127;-58
2022/12/04 09:22:18;;;;;;;;;83.00;62.67;;;;;4.66;100.00;100360.53;6285140;20;2874354;-54
2022/12/04 09:24:48;;;;;;;;;88.33;70.00;;;;;4.93;100.00;100366.88;6307853;20;3659622;-56
2022/12/04 09:27:17;;;;;;;;;84.33;67.67;;;;;4.94;100.00;100365.09;6315100;20;3639970;-56
2022/12/04 09:29:47;;;;;;;;;82.00;62.00;;;;;5.17;100.00;100361.78;6312354;20;3654621;-57
2022/12/04 09:32:16;;;;;;;;;86.67;68.00;;;;;5.16;100.00;100352.03;6313595;20;3650247;-56
2022/12/04 09:34:49;;;;;;;;;80.33;64.00;;;;;5.34;100.00;100348.84;6277453;20;2877476;-54
2022/12/04 09:37:21;;;;;;;;;82.33;63.67;;;;;4.93;100.00;100356.25;6315184;20;3628527;-56
2022/12/04 09:39:50;;;;;;;;;80.00;58.00;;;;;4.71;100.00;100352.41;6312149;20;3653401;-55
2022/12/04 09:42:33;;;;;;;;;87.00;68.67;;;;;5.00;100.00;100344.53;6306636;20;3658673;-56
2022/12/04 09:45:19;;;;;;;;;86.67;69.67;;;;;5.19;100.00;100342.19;6280703;20;3650435;-57
2022/12/04 09:47:57;;;;;;;;;81.00;65.67;;;;;5.56;100.00;100332.25;6308880;20;3634748;-54
2022/12/04 09:50:42;;;;;;;;;88.00;66.50;;;;;5.64;100.00;100332.88;6279287;20;3544061;-58
2022/12/04 09:53:31;;;;;;;;;87.67;61.33;;;;;5.61;100.00;100323.19;6304786;20;3652467;-57
2022/12/04 09:56:14;;;;;;;;;88.33;65.67;;;;;5.77;100.00;100314.72;6308949;20;3653547;-57
2022/12/04 09:58:53;;;;;;;;;84.67;64.00;;;;;5.46;100.00;100308.53;6309741;20;2882708;-58
2022/12/04 10:01:48;;;;;;;;;76.33;58.67;;;;;5.68;100.00;100315.88;6313530;20;3634806;-55
2022/12/04 10:04:18;;;;;;;;;76.00;62.00;;;;;5.63;100.00;100301.81;6309625;20;2892065;-57
2022/12/04 10:07:29;;;;;;;;;77.00;59.33;;;;;5.63;100.00;100296.50;6269428;20;3637978;-58
2022/12/04 10:10:28;;;;;;;;;75.33;59.00;;;;;5.98;100.00;100297.19;6302968;20;3627349;-58
2022/12/04 10:13:15;;;;;;;;;84.67;63.67;;;;;6.09;100.00;100297.72;6306299;20;3625257;-58
2022/12/04 10:16:11;;;;;;;;;72.67;56.00;;;;;5.86;100.00;100293.97;6312298;20;3630527;-58
2022/12/04 10:19:07;;;;;;;;;73.67;56.00;;;;;6.22;100.00;100293.72;6312793;20;3633584;-60
2022/12/04 10:22:19;;;;;;;;;62.67;47.00;;;;;5.87;100.00;100294.84;6308056;20;2877376;-58
2022/12/04 10:25:13;;;;;;;;;73.00;54.67;;;;;6.14;100.00;100287.78;6315554;20;3645180;-59
2022/12/04 10:28:28;;;;;;;;;78.33;62.00;;;;;6.36;100.00;100285.22;6311910;20;3620643;-59
2022/12/04 10:31:02;;;;;;;;;79.00;61.33;;;;;6.82;100.00;100291.63;6311782;20;3638822;-59
2022/12/04 10:33:46;;;;;;;;;75.67;57.33;;;;;6.76;100.00;100279.34;6312783;20;3616027;-58
2022/12/04 10:36:22;;;;;;;;;79.33;61.33;;;;;6.49;100.00;100283.00;6308702;20;3641987;-59
2022/12/04 10:39:03;;;;;;;;;77.67;58.00;;;;;6.49;100.00;100280.34;6308272;20;3617951;-58
2022/12/04 10:41:58;;;;;;;;;72.33;56.00;;;;;6.51;100.00;100276.69;6309906;20;2877511;-58
2022/12/04 10:44:28;;;;;;;;;73.00;56.67;;;;;6.44;100.00;100280.50;6312144;20;3624238;-59
2022/12/04 10:47:05;;;;;;;;;76.00;55.33;;;;;6.46;100.00;100275.13;6310084;20;3657545;-58
2022/12/04 10:49:36;;;;;;;;;66.00;52.67;;;;;6.62;100.00;100268.31;6277652;20;3615997;-59
2022/12/04 10:52:11;;;;;;;;;75.33;57.33;;;;;6.82;100.00;100268.47;6311242;20;3634749;-59
2022/12/04 10:55:01;;;;;;;;;72.33;55.67;;;;;6.86;100.00;100261.19;6313290;20;3623260;-58
2022/12/04 10:57:44;;;;;;;;;56.67;42.67;;;;;6.80;100.00;100256.97;6312631;20;2857684;-58
2022/12/04 11:00:33;;;;;;;;;58.00;45.33;;;;;6.84;100.00;100252.38;6312385;20;2873064;-58
2022/12/04 11:03:23;;;;;;;;;64.33;51.00;;;;;6.82;100.00;100243.56;6310466;20;3626291;-59
2022/12/04 11:05:59;;;;;;;;;62.00;51.67;;;;;7.19;99.40;100237.69;6307140;20;3620113;-58
2022/12/04 11:08:49;;;;;;;;;66.00;54.00;;;;;7.07;98.77;100232.81;6309497;20;2752035;-59
2022/12/04 11:11:33;;;;;;;;;65.67;48.67;;;;;6.88;99.54;100221.13;6278287;20;3628403;-59
2022/12/04 11:14:22;;;;;;;;;61.33;44.00;;;;;6.87;99.00;100224.69;6305815;20;2882811;-59
2022/12/04 11:17:05;;;;;;;;;66.33;50.00;;;;;7.15;99.17;100222.72;6312553;20;3641034;-50
2022/12/04 11:19:35;;;;;;;;;65.33;51.00;;;;;7.17;98.75;100217.31;6310947;20;3630585;-47
2022/12/04 11:22:17;;;;;;;;;32.67;24.00;;;;;6.86;98.87;100222.97;6313261;20;3598221;-48
2022/12/04 11:24:56;;;;;;;;;56.33;42.33;;;;;7.10;98.07;100215.81;6308152;20;2856695;-49
2022/12/04 11:27:32;;;;;;;;;69.00;49.67;;;;;7.10;99.30;100216.69;6308101;20;3640946;-52
2022/12/04 11:30:14;;;;;;;;;64.00;49.67;;;;;6.91;99.89;100213.00;6305104;20;3618659;-48
2022/12/04 11:32:46;;;;;;;;;67.00;51.67;;;;;7.30;99.41;100202.56;6307072;20;3633649;-49
2022/12/04 11:35:27;;;;;;;;;67.33;52.33;;;;;7.53;98.73;100204.31;6308502;20;3638858;-47
2022/12/04 11:38:14;;;;;;;;;59.33;46.00;;;;;7.52;98.33;100204.38;6306439;20;3642053;-47
2022/12/04 11:40:55;;;;;;;;;54.67;42.00;;;;;7.18;98.34;100193.22;6308101;20;2868187;-46
2022/12/04 11:43:28;;;;;;;;;55.00;46.00;;;;;7.90;98.79;100192.09;6306410;20;2853566;-49
2022/12/04 11:46:05;;;;;;;;;54.33;40.00;;;;;7.95;96.87;100191.88;6280431;20;2862816;-48
2022/12/04 11:48:45;;;;;;;;;65.33;50.00;;;;;8.07;96.95;100188.69;6303453;20;3640926;-56
2022/12/04 11:51:49;;;;;;;;;59.67;48.33;;;;;7.85;96.73;100189.59;6280034;20;2863943;-59